Time;durP1;ratioP1;P1;durP2;ratioP2;P2;SDS_P1;SDS_P2;PMS_P1;PMS_P2;Temp;Humidity;BMP_temperature;BMP_pressure;BME280_temperature;BME280_humidity;BME280_pressure;Samples;Min_cycle;Max_cycle;Signal;HPM_P1;HPM_P2
2022/09/10 00:01:45;;;;;;;4.35;3.00;;;14.60;99.90;;;;;;4981594;28;20069;-76
2022/09/10 00:04:13;;;;;;;6.00;3.88;;;14.60;99.90;;;;;;5003031;28;20046;-75
2022/09/10 00:06:40;;;;;;;6.82;3.25;;;14.60;99.90;;;;;;5001354;28;20047;-74
2022/09/10 00:09:06;;;;;;;4.03;3.47;;;14.60;99.90;;;;;;4970441;28;20137;-74
2022/09/10 00:11:34;;;;;;;11.48;3.97;;;14.60;99.90;;;;;;4969463;28;20124;-74
2022/09/10 00:14:02;;;;;;;5.95;3.92;;;14.60;99.90;;;;;;4986331;28;20390;-74
2022/09/10 00:16:29;;;;;;;5.57;3.97;;;14.60;99.90;;;;;;4984832;28;20092;-74
2022/09/10 00:18:59;;;;;;;7.63;3.85;;;14.60;99.90;;;;;;5001983;28;20077;-74
2022/09/10 00:21:26;;;;;;;7.60;4.90;;;14.60;99.90;;;;;;4985504;28;20500;-73
2022/09/10 00:23:52;;;;;;;8.27;3.53;;;14.60;99.90;;;;;;4985882;28;20189;-74
2022/09/10 00:26:22;;;;;;;6.05;3.75;;;14.50;99.90;;;;;;5002147;28;20603;-74
2022/09/10 00:28:49;;;;;;;6.00;4.38;;;14.50;99.90;;;;;;4969430;28;20046;-74
2022/09/10 00:31:16;;;;;;;5.95;4.22;;;14.50;99.90;;;;;;4969236;28;20092;-74
2022/09/10 00:33:42;;;;;;;6.60;5.13;;;14.50;99.90;;;;;;4969062;28;20097;-73
2022/09/10 00:36:23;;;;;;;5.28;4.35;;;14.40;99.90;;;;;;4969487;28;20449;-73
2022/09/10 00:38:50;;;;;;;8.20;4.50;;;14.40;99.90;;;;;;4963895;28;20066;-74
2022/09/10 00:41:17;;;;;;;6.75;4.22;;;14.40;99.90;;;;;;4977714;28;20056;-73
2022/09/10 00:44:06;;;;;;;11.93;5.28;;;14.40;99.90;;;;;;4985136;28;20466;-73
2022/09/10 00:46:42;;;;;;;8.95;4.45;;;14.30;99.90;;;;;;4985079;28;20070;-73
2022/09/10 00:49:33;;;;;;;12.45;5.50;;;14.30;99.90;;;;;;4969386;28;20054;-73
2022/09/10 00:52:00;;;;;;;8.38;5.40;;;14.30;99.90;;;;;;4969260;28;20050;-74
2022/09/10 00:54:28;;;;;;;6.35;5.22;;;14.30;99.90;;;;;;4969149;28;20448;-73
2022/09/10 00:56:58;;;;;;;12.43;5.65;;;14.30;99.90;;;;;;4985109;28;20069;-73
2022/09/10 00:59:25;;;;;;;6.18;5.57;;;14.30;99.90;;;;;;5002031;28;20087;-73
2022/09/10 01:01:51;;;;;;;9.70;6.40;;;14.30;99.90;;;;;;4969051;28;20058;-73
2022/09/10 01:04:17;;;;;;;8.20;5.18;;;14.30;99.90;;;;;;4984926;28;20558;-74
2022/09/10 01:06:45;;;;;;;8.45;5.80;;;14.30;99.90;;;;;;4984259;28;20054;-74
2022/09/10 01:09:12;;;;;;;10.75;5.70;;;14.40;99.90;;;;;;4984701;28;20101;-74
2022/09/10 01:11:48;;;;;;;10.02;5.50;;;14.40;99.90;;;;;;4958816;28;20130;-74
2022/09/10 01:14:25;;;;;;;16.83;7.80;;;14.30;99.90;;;;;;4982202;28;20042;-74
2022/09/10 01:17:43;;;;;;;7.40;6.38;;;14.30;99.90;;;;;;4984950;28;20420;-74
2022/09/10 01:20:18;;;;;;;10.15;6.32;;;14.20;99.90;;;;;;4936780;28;20202;-74
2022/09/10 01:23:10;;;;;;;13.55;6.80;;;14.20;99.90;;;;;;4984226;28;20504;-74
2022/09/10 01:25:57;;;;;;;10.50;6.50;;;14.20;99.90;;;;;;4984804;28;20058;-74
2022/09/10 01:28:36;;;;;;;7.20;6.57;;;14.30;99.90;;;;;;4983760;28;20068;-74
2022/09/10 01:31:18;;;;;;;8.90;7.35;;;14.30;99.90;;;;;;4984807;28;20403;-74
2022/09/10 01:34:15;;;;;;;10.95;7.10;;;14.30;99.90;;;;;;4984407;28;20042;-74
2022/09/10 01:36:44;;;;;;;9.40;7.30;;;14.30;99.90;;;;;;4984007;28;20128;-74
2022/09/10 01:39:10;;;;;;;8.25;7.40;;;14.40;99.90;;;;;;4984871;28;20046;-74
2022/09/10 01:41:36;;;;;;;13.35;7.78;;;14.40;99.90;;;;;;4983434;28;20057;-73
2022/09/10 01:44:29;;;;;;;11.90;8.50;;;14.40;99.90;;;;;;4968888;28;20493;-74
2022/09/10 01:47:11;;;;;;;8.70;7.90;;;14.50;99.90;;;;;;4984163;28;20400;-73
2022/09/10 01:50:02;;;;;;;14.82;7.97;;;14.40;99.90;;;;;;4954102;28;20189;-74
2022/09/10 01:52:48;;;;;;;8.93;7.75;;;14.40;99.90;;;;;;4985075;28;20054;-73
2022/09/10 01:55:36;;;;;;;16.85;8.45;;;14.40;99.90;;;;;;4968095;28;20060;-73
2022/09/10 01:58:15;;;;;;;12.60;8.70;;;14.50;99.90;;;;;;4984361;28;20774;-74
2022/09/10 02:00:46;;;;;;;11.50;8.10;;;14.40;99.90;;;;;;4984301;28;20501;-73
2022/09/10 02:03:17;;;;;;;9.57;7.45;;;14.40;99.90;;;;;;4984118;28;20050;-73
2022/09/10 02:05:47;;;;;;;14.20;8.07;;;14.40;99.90;;;;;;4984491;28;20050;-74
2022/09/10 02:08:25;;;;;;;11.82;8.50;;;14.40;99.90;;;;;;5000916;28;20092;-74
2022/09/10 02:10:53;;;;;;;11.70;9.02;;;14.50;99.90;;;;;;4999836;28;20121;-74
2022/09/10 02:13:21;;;;;;;9.63;8.60;;;14.40;99.90;;;;;;4984776;28;20400;-74
2022/09/10 02:15:48;;;;;;;14.77;8.70;;;14.50;99.90;;;;;;4983793;28;20289;-74
2022/09/10 02:18:14;;;;;;;10.77;8.18;;;14.50;99.90;;;;;;4984623;28;20048;-73
2022/09/10 02:20:40;;;;;;;13.20;9.10;;;14.50;99.90;;;;;;4983917;28;20064;-73
2022/09/10 02:23:09;;;;;;;17.60;9.48;;;14.50;99.90;;;;;;4983979;28;20507;-73
2022/09/10 02:25:38;;;;;;;14.02;9.55;;;14.50;99.90;;;;;;4984201;28;20492;-74
2022/09/10 02:28:05;;;;;;;11.03;9.50;;;14.50;99.90;;;;;;4983972;28;20086;-73
2022/09/10 02:30:31;;;;;;;15.00;9.82;;;14.50;99.90;;;;;;4983905;28;20054;-74
2022/09/10 02:32:57;;;;;;;11.63;9.05;;;14.50;99.90;;;;;;4983551;28;20077;-74
2022/09/10 02:35:23;;;;;;;13.40;9.75;;;14.50;99.90;;;;;;4984461;28;20097;-74
2022/09/10 02:37:49;;;;;;;15.25;9.77;;;14.60;99.90;;;;;;4983144;28;20042;-74
2022/09/10 02:40:18;;;;;;;15.77;9.55;;;14.50;99.90;;;;;;4970546;28;20055;-74
2022/09/10 02:42:45;;;;;;;11.68;9.82;;;14.50;99.90;;;;;;4986945;28;20046;-73
2022/09/10 02:45:12;;;;;;;15.32;10.07;;;14.50;99.90;;;;;;4987724;28;20039;-74
2022/09/10 02:47:38;;;;;;;11.88;10.27;;;14.60;99.90;;;;;;4987248;28;20057;-73
2022/09/10 02:50:05;;;;;;;15.43;10.82;;;14.60;99.90;;;;;;4987084;28;20122;-74
2022/09/10 02:52:32;;;;;;;12.00;10.23;;;14.60;99.90;;;;;;4988316;28;20058;-74
2022/09/10 02:54:58;;;;;;;12.65;10.20;;;14.60;99.90;;;;;;4986372;28;20672;-74
2022/09/10 02:57:25;;;;;;;11.40;10.30;;;14.60;99.90;;;;;;4988144;28;20042;-74
2022/09/10 02:59:52;;;;;;;17.10;10.68;;;14.60;99.90;;;;;;4986653;28;20046;-74
2022/09/10 03:02:19;;;;;;;12.20;10.68;;;14.60;99.90;;;;;;4987352;28;20133;-74
2022/09/10 03:04:45;;;;;;;11.75;10.23;;;14.70;99.90;;;;;;4986864;28;20046;-74
2022/09/10 03:07:11;;;;;;;12.95;9.55;;;14.70;99.90;;;;;;4986909;28;20448;-74
2022/09/10 03:09:39;;;;;;;10.13;9.15;;;14.70;99.90;;;;;;4987470;28;20046;-75
2022/09/10 03:12:06;;;;;;;12.00;9.63;;;14.70;99.90;;;;;;4986902;28;20057;-74
2022/09/10 03:14:33;;;;;;;10.93;9.82;;;14.70;99.90;;;;;;4971246;28;20034;-74
2022/09/10 03:16:59;;;;;;;13.10;9.30;;;14.70;99.90;;;;;;4986478;28;20042;-74
2022/09/10 03:19:25;;;;;;;14.48;10.13;;;14.60;99.90;;;;;;4970933;28;20046;-74
2022/09/10 03:21:51;;;;;;;13.60;9.90;;;14.60;99.90;;;;;;4970260;28;20085;-74
2022/09/10 03:24:18;;;;;;;13.15;9.52;;;14.60;99.90;;;;;;4989037;28;20477;-74
2022/09/10 03:26:43;;;;;;;12.93;9.18;;;14.60;99.90;;;;;;4987132;28;20096;-74
2022/09/10 03:29:09;;;;;;;11.02;9.52;;;14.60;99.90;;;;;;4986986;28;20125;-75
2022/09/10 03:31:36;;;;;;;10.77;9.63;;;14.60;99.90;;;;;;5003467;28;20046;-75
2022/09/10 03:34:02;;;;;;;12.40;9.77;;;14.60;99.90;;;;;;5002225;28;20519;-74
2022/09/10 03:36:30;;;;;;;10.68;9.52;;;14.60;99.90;;;;;;5003142;28;20506;-75
2022/09/10 03:38:59;;;;;;;11.77;9.52;;;14.50;99.90;;;;;;4970161;28;20137;-75
2022/09/10 03:41:27;;;;;;;16.67;10.85;;;14.50;99.90;;;;;;4986641;28;20054;-74
2022/09/10 03:43:53;;;;;;;12.00;9.85;;;14.50;99.90;;;;;;4970164;28;20051;-74
2022/09/10 03:46:20;;;;;;;11.18;10.00;;;14.50;99.90;;;;;;4986448;28;20050;-74
2022/09/10 03:48:46;;;;;;;15.73;9.95;;;14.50;99.90;;;;;;4986800;28;20553;-75
2022/09/10 03:51:12;;;;;;;15.77;10.02;;;14.50;99.90;;;;;;4968675;28;20544;-75
2022/09/10 03:53:37;;;;;;;12.52;10.45;;;14.50;99.90;;;;;;4970852;28;20132;-75
2022/09/10 03:56:03;;;;;;;11.93;10.50;;;14.50;99.90;;;;;;4970056;28;20489;-75
2022/09/10 03:58:31;;;;;;;14.10;10.57;;;14.50;99.90;;;;;;4970294;28;20042;-74
2022/09/10 04:00:57;;;;;;;11.98;10.70;;;14.50;99.90;;;;;;4985807;28;20050;-74
2022/09/10 04:03:23;;;;;;;19.60;11.48;;;14.50;99.90;;;;;;4967886;28;20485;-74
2022/09/10 04:05:49;;;;;;;14.95;10.60;;;14.50;99.90;;;;;;4985894;28;20041;-74
2022/09/10 04:08:15;;;;;;;11.85;10.65;;;14.50;99.90;;;;;;4986096;28;20487;-74
2022/09/10 04:10:42;;;;;;;18.70;11.02;;;14.50;99.90;;;;;;4986340;28;20440;-74
2022/09/10 04:13:09;;;;;;;11.73;10.35;;;14.50;99.90;;;;;;4985660;28;20053;-74
2022/09/10 04:15:36;;;;;;;12.05;10.60;;;14.50;99.90;;;;;;4986132;28;20574;-74
2022/09/10 04:18:02;;;;;;;14.98;11.70;;;14.50;99.90;;;;;;4969514;28;20038;-74
2022/09/10 04:20:28;;;;;;;16.42;13.30;;;14.50;99.90;;;;;;4985467;28;20047;-74
2022/09/10 04:22:55;;;;;;;15.25;13.65;;;14.50;99.90;;;;;;4978876;28;20062;-74
2022/09/10 04:25:21;;;;;;;16.52;13.38;;;14.60;99.90;;;;;;4985765;28;20050;-74
2022/09/10 04:27:48;;;;;;;15.68;13.35;;;14.60;99.90;;;;;;4986336;28;20097;-74
2022/09/10 04:30:15;;;;;;;28.83;13.95;;;14.60;99.90;;;;;;4985621;28;20968;-74
2022/09/10 04:32:41;;;;;;;21.80;12.45;;;14.60;99.90;;;;;;4985860;28;20084;-74
2022/09/10 04:35:07;;;;;;;15.90;12.95;;;14.60;99.90;;;;;;4952619;28;20050;-74
2022/09/10 04:37:33;;;;;;;15.88;12.95;;;14.60;99.90;;;;;;4969520;28;20090;-74
2022/09/10 04:39:59;;;;;;;14.30;12.23;;;14.60;99.90;;;;;;4984956;28;20050;-74
2022/09/10 04:42:25;;;;;;;14.90;12.18;;;14.70;99.90;;;;;;4985530;28;20093;-74
2022/09/10 04:44:50;;;;;;;21.80;11.95;;;14.70;99.90;;;;;;4985726;28;20709;-74
2022/09/10 04:47:17;;;;;;;12.90;11.70;;;14.70;99.90;;;;;;4969520;28;20132;-74
2022/09/10 04:49:43;;;;;;;17.27;12.77;;;14.70;99.90;;;;;;4985559;28;20157;-74
2022/09/10 04:52:10;;;;;;;21.50;12.63;;;14.70;99.90;;;;;;4984597;28;20047;-74
2022/09/10 04:54:36;;;;;;;17.70;11.70;;;14.70;99.90;;;;;;4985587;28;20208;-74
2022/09/10 04:57:06;;;;;;;13.40;10.93;;;14.70;99.90;;;;;;4985049;28;20048;-74
2022/09/10 04:59:32;;;;;;;16.05;11.43;;;14.70;99.90;;;;;;4985376;28;20421;-74
2022/09/10 05:01:57;;;;;;;14.77;12.20;;;14.70;99.90;;;;;;4984797;28;20081;-74
2022/09/10 05:04:24;;;;;;;14.75;11.73;;;14.70;99.90;;;;;;4968597;28;20085;-74
2022/09/10 05:06:50;;;;;;;20.60;13.07;;;14.70;99.90;;;;;;4985381;28;20046;-74
2022/09/10 05:09:16;;;;;;;19.63;12.40;;;14.70;99.90;;;;;;4984204;28;20056;-75
2022/09/10 05:11:42;;;;;;;20.35;12.13;;;14.80;99.90;;;;;;4968872;28;20046;-74
2022/09/10 05:14:08;;;;;;;21.40;13.32;;;14.70;99.90;;;;;;4985837;28;20391;-74
2022/09/10 05:16:35;;;;;;;21.13;12.68;;;14.80;99.90;;;;;;4985936;28;20079;-74
2022/09/10 05:19:01;;;;;;;17.67;12.35;;;14.80;99.90;;;;;;4984240;28;20050;-74
2022/09/10 05:21:28;;;;;;;18.55;13.98;;;14.80;99.90;;;;;;4984362;28;20439;-74
2022/09/10 05:23:55;;;;;;;15.70;12.40;;;14.80;99.90;;;;;;4984672;28;20098;-74
2022/09/10 05:26:21;;;;;;;21.30;12.68;;;14.80;99.90;;;;;;4984532;28;20046;-74
2022/09/10 05:28:46;;;;;;;16.23;12.27;;;14.80;99.90;;;;;;4985033;28;20434;-74
2022/09/10 05:31:12;;;;;;;21.52;12.57;;;14.80;99.90;;;;;;4999549;28;20125;-74
2022/09/10 05:33:39;;;;;;;17.92;12.32;;;14.80;99.90;;;;;;4968680;28;20051;-75
2022/09/10 05:36:08;;;;;;;21.77;12.32;;;14.80;99.90;;;;;;4984180;28;20046;-74
2022/09/10 05:38:34;;;;;;;16.27;11.90;;;14.90;99.90;;;;;;4984935;28;20042;-76
2022/09/10 05:41:00;;;;;;;18.75;12.38;;;14.80;99.90;;;;;;4968638;28;20045;-75
2022/09/10 05:43:27;;;;;;;18.52;11.35;;;14.80;99.90;;;;;;4968043;28;20650;-76
2022/09/10 05:45:53;;;;;;;22.52;11.77;;;14.90;99.90;;;;;;4985266;28;20050;-77
2022/09/10 05:48:19;;;;;;;21.88;12.60;;;14.90;99.90;;;;;;4967497;28;20034;-76
2022/09/10 05:50:45;;;;;;;24.08;12.18;;;14.90;99.90;;;;;;4984998;28;20580;-76
2022/09/10 05:53:12;;;;;;;14.68;11.52;;;14.90;99.90;;;;;;4983832;28;20121;-76
2022/09/10 05:55:38;;;;;;;16.13;10.85;;;15.00;99.90;;;;;;4984524;28;20072;-76
2022/09/10 05:58:03;;;;;;;23.38;12.27;;;14.90;99.90;;;;;;4967984;28;20050;-76
2022/09/10 06:00:29;;;;;;;16.13;10.52;;;15.00;99.90;;;;;;4984048;28;20034;-76
2022/09/10 06:02:56;;;;;;;18.10;11.55;;;15.00;99.90;;;;;;4978828;28;20055;-76
2022/09/10 06:05:22;;;;;;;25.08;12.20;;;15.00;99.90;;;;;;4984313;28;20034;-76
2022/09/10 06:07:49;;;;;;;17.67;11.23;;;15.00;99.90;;;;;;4984930;28;20431;-76
2022/09/10 06:10:15;;;;;;;14.23;11.25;;;15.00;99.90;;;;;;4983649;28;20043;-73
2022/09/10 06:12:51;;;;;;;13.63;10.43;;;15.10;99.90;;;;;;4968110;28;20049;-74
2022/09/10 06:15:18;;;;;;;14.18;11.40;;;15.10;99.90;;;;;;4986971;28;20039;-74
2022/09/10 06:17:44;;;;;;;18.05;11.43;;;15.10;99.90;;;;;;4987947;28;20046;-74
2022/09/10 06:20:11;;;;;;;18.40;10.85;;;15.10;99.90;;;;;;4988687;28;20928;-73
2022/09/10 06:22:37;;;;;;;17.80;10.75;;;15.10;99.90;;;;;;4969684;28;20069;-74
2022/09/10 06:25:05;;;;;;;19.70;10.63;;;15.10;99.90;;;;;;5004825;28;20483;-73
2022/09/10 06:27:31;;;;;;;20.45;11.45;;;15.10;99.90;;;;;;4986748;28;20057;-73
2022/09/10 06:29:57;;;;;;;19.65;11.63;;;15.10;99.90;;;;;;4988069;28;20042;-73
2022/09/10 06:32:23;;;;;;;17.83;12.07;;;15.20;99.90;;;;;;4987454;28;20077;-73
2022/09/10 06:34:48;;;;;;;15.00;10.75;;;15.20;99.90;;;;;;4983743;28;20034;-73
2022/09/10 06:37:14;;;;;;;18.00;11.07;;;15.20;99.90;;;;;;4972366;28;20050;-73
2022/09/10 06:39:40;;;;;;;17.85;11.13;;;15.20;99.90;;;;;;4986833;28;20329;-74
2022/09/10 06:42:06;;;;;;;24.60;12.60;;;15.20;99.90;;;;;;4987124;28;20069;-73
2022/09/10 06:44:32;;;;;;;18.95;11.98;;;15.30;99.90;;;;;;4972664;28;20039;-73
2022/09/10 06:46:57;;;;;;;20.27;12.20;;;15.30;99.90;;;;;;4979290;28;20046;-73
2022/09/10 06:49:23;;;;;;;15.57;10.88;;;15.30;99.90;;;;;;4986880;28;20096;-73
2022/09/10 06:51:50;;;;;;;18.75;12.10;;;15.40;99.90;;;;;;4987700;28;20049;-73
2022/09/10 06:54:17;;;;;;;19.95;12.00;;;15.40;99.90;;;;;;4987930;28;20050;-74
2022/09/10 06:56:45;;;;;;;22.70;12.32;;;15.40;99.90;;;;;;4987530;28;20042;-73
2022/09/10 06:59:13;;;;;;;20.70;12.32;;;15.50;99.90;;;;;;4988208;28;20046;-73
2022/09/10 07:01:40;;;;;;;27.63;12.40;;;15.50;99.90;;;;;;4981713;28;20090;-74
2022/09/10 07:04:07;;;;;;;20.92;12.10;;;15.50;99.90;;;;;;4972299;28;20666;-73
2022/09/10 07:06:34;;;;;;;19.60;12.55;;;15.60;99.90;;;;;;4987567;28;20042;-73
2022/09/10 07:09:01;;;;;;;19.50;12.50;;;15.60;99.90;;;;;;4987922;28;20391;-73
2022/09/10 07:11:30;;;;;;;26.85;12.93;;;15.60;99.90;;;;;;4987351;28;20093;-73
2022/09/10 07:13:57;;;;;;;19.52;11.95;;;15.60;99.90;;;;;;4987372;28;20471;-73
2022/09/10 07:16:25;;;;;;;21.92;13.32;;;15.60;99.90;;;;;;4988079;28;20034;-73
2022/09/10 07:18:53;;;;;;;21.83;12.35;;;15.60;99.90;;;;;;4987144;28;20050;-74
2022/09/10 07:21:20;;;;;;;18.42;11.60;;;15.60;99.90;;;;;;4989160;28;20374;-76
2022/09/10 07:23:47;;;;;;;18.55;13.02;;;15.70;99.90;;;;;;4988667;28;20548;-77
2022/09/10 07:26:18;;;;;;;16.42;11.55;;;15.70;99.90;;;;;;5001923;28;20034;-77
2022/09/10 07:28:45;;;;;;;17.70;12.10;;;15.70;99.90;;;;;;4983698;28;20073;-76
2022/09/10 07:31:19;;;;;;;22.58;12.40;;;15.80;99.90;;;;;;4989797;28;20050;-77
2022/09/10 07:33:46;;;;;;;18.20;12.15;;;15.80;99.90;;;;;;4980207;28;20520;-77
2022/09/10 07:36:12;;;;;;;20.45;12.02;;;15.80;99.90;;;;;;4987381;28;20046;-76
2022/09/10 07:38:39;;;;;;;19.15;11.50;;;15.80;99.90;;;;;;5007857;28;20072;-77
2022/09/10 07:41:12;;;;;;;18.48;12.02;;;15.90;99.90;;;;;;4988499;28;20042;-75
2022/09/10 07:43:42;;;;;;;19.70;11.38;;;15.90;99.90;;;;;;4989556;28;20046;-76
2022/09/10 07:46:18;;;;;;;21.67;12.13;;;15.90;99.90;;;;;;4989131;28;20042;-75
2022/09/10 07:48:43;;;;;;;18.88;11.63;;;15.90;99.90;;;;;;4994886;28;20112;-76
2022/09/10 07:51:10;;;;;;;20.23;13.27;;;16.00;99.90;;;;;;4989476;28;20049;-76
2022/09/10 07:53:37;;;;;;;23.05;12.77;;;16.00;99.90;;;;;;4984805;28;20045;-75
2022/09/10 07:56:05;;;;;;;25.65;13.00;;;16.00;99.90;;;;;;4985793;28;20062;-76
2022/09/10 07:58:32;;;;;;;18.70;12.18;;;16.10;99.90;;;;;;4998293;28;20424;-76
2022/09/10 08:00:59;;;;;;;22.42;13.63;;;16.10;99.90;;;;;;4982552;28;20073;-75
2022/09/10 08:03:26;;;;;;;22.63;12.90;;;16.10;99.90;;;;;;4990476;28;20519;-75
2022/09/10 08:05:52;;;;;;;19.10;12.45;;;16.10;99.90;;;;;;4998464;28;20042;-73
2022/09/10 08:08:18;;;;;;;17.77;12.27;;;16.20;99.90;;;;;;4999814;28;20101;-73
2022/09/10 08:10:45;;;;;;;20.25;13.85;;;16.20;99.90;;;;;;4969307;28;20065;-73
2022/09/10 08:13:11;;;;;;;16.58;12.32;;;16.20;99.90;;;;;;4987738;28;20038;-73
2022/09/10 08:15:46;;;;;;;20.33;12.27;;;16.20;99.90;;;;;;4987386;28;20160;-73
2022/09/10 08:18:12;;;;;;;21.98;13.13;;;16.20;99.90;;;;;;4987990;28;20121;-73
2022/09/10 08:20:39;;;;;;;18.75;12.90;;;16.30;99.90;;;;;;4973067;28;20060;-73
2022/09/10 08:23:06;;;;;;;22.45;12.52;;;16.30;99.90;;;;;;4983253;28;20092;-73
2022/09/10 08:25:32;;;;;;;22.27;12.60;;;16.30;99.90;;;;;;4987984;28;20411;-73
2022/09/10 08:27:59;;;;;;;18.27;12.45;;;16.30;99.90;;;;;;4989175;28;20037;-72
2022/09/10 08:30:25;;;;;;;20.27;12.30;;;16.40;99.90;;;;;;4987082;28;20160;-73
2022/09/10 08:32:51;;;;;;;19.75;12.88;;;16.40;99.90;;;;;;4972978;28;20050;-73
2022/09/10 08:35:18;;;;;;;20.77;12.32;;;16.40;99.90;;;;;;4988861;28;20613;-72
2022/09/10 08:37:43;;;;;;;19.17;12.45;;;16.40;99.90;;;;;;4984607;28;20417;-72
2022/09/10 08:40:11;;;;;;;22.52;12.88;;;16.40;99.90;;;;;;4991035;28;20042;-72
2022/09/10 08:42:48;;;;;;;20.15;12.57;;;16.50;99.90;;;;;;4974920;28;20081;-72
2022/09/10 08:45:21;;;;;;;20.08;13.05;;;16.50;99.90;;;;;;4976505;28;20449;-73
2022/09/10 08:47:52;;;;;;;21.98;12.95;;;16.50;99.90;;;;;;4984981;28;20050;-72
2022/09/10 08:50:27;;;;;;;15.30;11.60;;;16.50;99.90;;;;;;4984168;28;20419;-72
2022/09/10 08:52:56;;;;;;;16.55;10.95;;;16.50;99.90;;;;;;4992869;28;20421;-72
2022/09/10 08:55:23;;;;;;;19.70;12.40;;;16.60;99.90;;;;;;4987856;28;20081;-72
2022/09/10 08:58:17;;;;;;;16.83;11.88;;;16.60;99.90;;;;;;4984203;28;20554;-72
2022/09/10 09:00:45;;;;;;;15.82;10.95;;;16.70;99.90;;;;;;4974170;28;20061;-73
2022/09/10 09:03:32;;;;;;;19.98;11.70;;;16.70;99.90;;;;;;5006261;28;20042;-73
2022/09/10 09:06:01;;;;;;;18.77;12.02;;;16.80;99.90;;;;;;4986267;28;20519;-73
2022/09/10 09:08:34;;;;;;;20.27;11.80;;;16.80;99.90;;;;;;4987953;28;20037;-73
2022/09/10 09:11:03;;;;;;;21.13;11.75;;;16.80;99.90;;;;;;4986932;28;20062;-73
2022/09/10 09:13:38;;;;;;;15.85;10.52;;;16.90;99.90;;;;;;4989060;28;20073;-73
2022/09/10 09:16:34;;;;;;;15.15;10.43;;;16.80;99.90;;;;;;4996753;28;20039;-72
2022/09/10 09:19:16;;;;;;;13.23;10.13;;;16.80;99.90;;;;;;4983040;28;20486;-73
2022/09/10 09:21:53;;;;;;;14.35;9.35;;;16.80;99.90;;;;;;4986641;28;20072;-73
2022/09/10 09:24:56;;;;;;;16.25;10.00;;;16.90;99.90;;;;;;4987754;28;20053;-72
2022/09/10 09:27:26;;;;;;;17.48;10.23;;;16.90;99.90;;;;;;4945111;28;20039;-73
2022/09/10 09:30:03;;;;;;;14.55;9.80;;;16.90;99.90;;;;;;4985123;28;20053;-73
2022/09/10 09:32:41;;;;;;;14.88;9.18;;;16.90;99.90;;;;;;4987695;28;20523;-73
2022/09/10 09:35:27;;;;;;;11.68;9.45;;;17.00;99.90;;;;;;4987256;28;20050;-73
2022/09/10 09:38:19;;;;;;;10.82;9.18;;;17.00;99.90;;;;;;4983899;28;20132;-72
2022/09/10 09:40:48;;;;;;;13.27;8.80;;;17.10;99.90;;;;;;4982009;28;20053;-73
2022/09/10 09:43:33;;;;;;;15.65;9.48;;;17.10;99.90;;;;;;4987149;28;20496;-73
2022/09/10 09:46:00;;;;;;;13.73;9.13;;;17.10;99.90;;;;;;4972606;28;20057;-73
2022/09/10 09:48:38;;;;;;;15.93;8.82;;;17.10;99.90;;;;;;5001978;28;20069;-73
2022/09/10 09:51:06;;;;;;;10.07;7.93;;;17.20;99.90;;;;;;4979766;28;20061;-72
2022/09/10 09:53:32;;;;;;;11.15;8.00;;;17.20;99.90;;;;;;4999934;28;20381;-72
2022/09/10 09:56:01;;;;;;;11.40;7.72;;;17.30;99.90;;;;;;4977761;28;20046;-72
2022/09/10 09:58:30;;;;;;;12.88;8.25;;;17.40;99.90;;;;;;4986616;28;20503;-72
2022/09/10 10:01:04;;;;;;;17.98;9.30;;;17.40;99.90;;;;;;5001584;28;20042;-75
2022/09/10 10:03:51;;;;;;;10.20;7.47;;;17.50;99.90;;;;;;4983736;28;20447;-74
2022/09/10 10:06:20;;;;;;;8.60;6.60;;;17.60;99.90;;;;;;4980287;28;20117;-75
2022/09/10 10:09:02;;;;;;;9.48;6.70;;;17.70;99.90;;;;;;4988279;28;20507;-72
2022/09/10 10:11:50;;;;;;;10.43;7.30;;;17.80;99.90;;;;;;4982337;28;20050;-72
2022/09/10 10:14:19;;;;;;;9.23;7.35;;;17.90;99.90;;;;;;4987861;28;20497;-72
2022/09/10 10:16:47;;;;;;;14.27;8.07;;;18.10;99.90;;;;;;4981708;28;20034;-72
2022/09/10 10:19:35;;;;;;;11.35;7.50;;;18.20;99.90;;;;;;4971773;28;20138;-72
2022/09/10 10:22:19;;;;;;;9.60;6.68;;;18.30;99.90;;;;;;4986407;28;20053;-72
2022/09/10 10:24:48;;;;;;;10.52;6.72;;;18.40;99.90;;;;;;5000803;28;20555;-72
2022/09/10 10:27:29;;;;;;;9.52;6.43;;;18.30;99.90;;;;;;4969393;28;20038;-74
2022/09/10 10:30:15;;;;;;;9.20;6.80;;;18.40;99.90;;;;;;4986775;28;20050;-75
2022/09/10 10:32:43;;;;;;;14.02;7.72;;;18.40;99.90;;;;;;4977788;28;20048;-74
2022/09/10 10:35:43;;;;;;;15.60;8.50;;;18.30;99.90;;;;;;4985686;28;20782;-74
2022/09/10 10:38:38;;;;;;;11.77;8.65;;;18.20;99.90;;;;;;4970862;28;20046;-74
2022/09/10 10:41:51;;;;;;;18.73;7.93;;;18.10;99.90;;;;;;4983985;28;20056;-74
2022/09/10 10:44:31;;;;;;;13.60;8.25;;;18.10;99.90;;;;;;4993266;28;20042;-74
2022/09/10 10:47:21;;;;;;;12.90;7.68;;;18.00;99.90;;;;;;4996326;28;20057;-74
2022/09/10 10:50:10;;;;;;;13.68;7.57;;;17.90;99.90;;;;;;4978336;28;20093;-74
2022/09/10 10:52:53;;;;;;;8.57;6.82;;;18.00;99.90;;;;;;4987556;28;20404;-75
2022/09/10 10:55:30;;;;;;;9.93;6.07;;;18.00;99.90;;;;;;5001901;28;20046;-75
2022/09/10 10:58:06;;;;;;;9.15;6.78;;;17.90;99.90;;;;;;4973598;28;20042;-74
2022/09/10 11:00:42;;;;;;;8.48;6.30;;;17.90;99.90;;;;;;4979687;28;20400;-74
2022/09/10 11:03:17;;;;;;;8.05;5.82;;;18.00;99.90;;;;;;4991008;28;20522;-74
2022/09/10 11:05:55;;;;;;;10.25;6.65;;;18.10;99.90;;;;;;4990460;28;20100;-74
2022/09/10 11:08:33;;;;;;;12.32;6.60;;;18.20;99.90;;;;;;4977130;28;20277;-74
2022/09/10 11:11:17;;;;;;;9.90;6.28;;;18.20;99.90;;;;;;5007208;28;20058;-74
2022/09/10 11:13:56;;;;;;;9.63;7.10;;;18.20;99.90;;;;;;5008781;28;20443;-74
2022/09/10 11:16:28;;;;;;;11.23;6.43;;;18.30;99.90;;;;;;5007173;28;20053;-74
2022/09/10 11:19:02;;;;;;;8.35;6.55;;;18.20;99.90;;;;;;4989605;28;20100;-75
2022/09/10 11:21:44;;;;;;;12.13;6.32;;;18.10;99.90;;;;;;4973911;28;20455;-75
2022/09/10 11:24:25;;;;;;;7.78;5.82;;;18.10;99.90;;;;;;4982327;28;20432;-74
2022/09/10 11:27:29;;;;;;;9.48;6.20;;;18.00;99.90;;;;;;4965549;28;20128;-74
2022/09/10 11:29:58;;;;;;;8.93;5.82;;;18.00;99.90;;;;;;4975679;28;20501;-75
2022/09/10 11:32:37;;;;;;;13.27;6.10;;;18.20;99.90;;;;;;4986618;28;20493;-74
2022/09/10 11:35:13;;;;;;;10.93;6.23;;;18.40;99.90;;;;;;4990230;28;20049;-74
2022/09/10 11:38:06;;;;;;;11.18;5.85;;;18.60;99.90;;;;;;4985358;28;20121;-74
2022/09/10 11:40:38;;;;;;;8.27;5.85;;;18.80;99.90;;;;;;4990093;28;20432;-74
2022/09/10 11:43:12;;;;;;;8.77;5.40;;;18.90;99.90;;;;;;4988611;28;20080;-74
2022/09/10 11:45:51;;;;;;;11.30;5.30;;;19.00;99.90;;;;;;4979992;28;20159;-74
2022/09/10 11:48:36;;;;;;;8.60;5.32;;;19.10;99.90;;;;;;4973975;28;20084;-74
2022/09/10 11:51:29;;;;;;;9.88;4.93;;;19.00;99.90;;;;;;4989735;28;20080;-75
2022/09/10 11:53:55;;;;;;;9.75;4.80;;;19.00;99.90;;;;;;5006589;28;20077;-74
2022/09/10 11:56:40;;;;;;;10.93;6.13;;;19.00;99.90;;;;;;4983712;28;20050;-73
2022/09/10 11:59:39;;;;;;;5.78;4.72;;;18.90;99.90;;;;;;4990214;28;20069;-74
2022/09/10 12:02:35;;;;;;;7.95;5.15;;;18.80;99.90;;;;;;4978920;28;20407;-74
2022/09/10 12:05:15;;;;;;;8.18;4.20;;;18.80;99.90;;;;;;4989671;28;20050;-73
2022/09/10 12:08:03;;;;;;;7.45;4.68;;;19.00;99.90;;;;;;4989789;28;20046;-73
2022/09/10 12:10:44;;;;;;;5.15;4.10;;;19.10;99.90;;;;;;4986466;28;20042;-73
2022/09/10 12:13:14;;;;;;;9.65;5.30;;;19.30;99.90;;;;;;4987631;28;20436;-73
2022/09/10 12:15:54;;;;;;;8.95;5.53;;;19.50;99.90;;;;;;4989680;28;20049;-73
2022/09/10 12:18:41;;;;;;;6.88;4.85;;;19.50;99.90;;;;;;5006103;28;20049;-73
2022/09/10 12:21:31;;;;;;;9.32;5.15;;;19.60;99.90;;;;;;5005684;28;20112;-73
2022/09/10 12:23:59;;;;;;;9.90;5.40;;;19.70;99.90;;;;;;4989216;28;20435;-73
2022/09/10 12:26:25;;;;;;;7.68;5.70;;;19.90;99.90;;;;;;4988537;28;20042;-74
2022/09/10 12:28:51;;;;;;;7.18;6.28;;;20.00;99.90;;;;;;4989613;28;20418;-74
2022/09/10 12:31:19;;;;;;;10.52;5.90;;;20.00;99.90;;;;;;4988014;28;20483;-73
2022/09/10 12:33:45;;;;;;;6.18;5.57;;;20.10;99.90;;;;;;5007062;28;20038;-73
2022/09/10 12:36:15;;;;;;;10.90;6.47;;;20.10;99.90;;;;;;4987724;28;20121;-73
2022/09/10 12:38:52;;;;;;;10.15;5.35;;;20.20;99.90;;;;;;5005532;28;20492;-74
2022/09/10 12:41:25;;;;;;;8.82;6.75;;;20.30;99.90;;;;;;4989270;28;20530;-73
2022/09/10 12:43:59;;;;;;;11.15;7.15;;;20.50;99.90;;;;;;4983663;28;20089;-73
2022/09/10 12:46:26;;;;;;;12.30;8.32;;;20.60;99.90;;;;;;4985022;28;20092;-73
2022/09/10 12:48:54;;;;;;;13.55;8.93;;;20.70;99.90;;;;;;4989044;28;20136;-73
2022/09/10 12:51:42;;;;;;;12.55;8.30;;;20.60;99.90;;;;;;4988522;28;20046;-73
2022/09/10 12:54:47;;;;;;;13.77;9.07;;;20.50;99.90;;;;;;4986960;28;20129;-73
2022/09/10 12:57:25;;;;;;;13.00;8.75;;;20.50;99.90;;;;;;4988326;28;20049;-73